Terminal Aerodrome Forecast
Issued by NWS

Home | Current Version | Previous Version | Text Only | Print | Product List | Glossary On
Versions: 1 2 3 4 5 6 7 8 9 10 11 12 13
000
FTPQ31 PGUM 010500
TAFPQ
TAF

PTRO 010522Z 0106/0206 23012G20KT P6SM VCSH SCT015 SCT030 BKN110
      TEMPO 0106/0109 3SM TSRA SCT007CB OVC015
     FM011900 20012KT P6SM VCSH SCT016 SCT030 BKN120=

USA.gov is the U.S. government's official web portal to all federal, state and local government web resources and services.